createdAt,value
2022-12-03T00:01:05.962Z,57.65
2022-12-03T00:06:58.772Z,61.70
2022-12-03T00:12:50.787Z,62.25
2022-12-03T00:18:43.754Z,58.25
2022-12-03T00:24:35.702Z,72.32
2022-12-03T00:30:27.700Z,67.50
2022-12-03T00:36:19.974Z,73.28
2022-12-03T00:42:12.613Z,70.90
2022-12-03T00:48:05.164Z,75.30
2022-12-03T00:53:57.614Z,75.47
2022-12-03T00:59:49.895Z,64.45
2022-12-03T01:05:42.491Z,75.30
2022-12-03T01:11:37.722Z,68.07
2022-12-03T01:17:30.002Z,61.88
2022-12-03T01:23:23.142Z,75.90
2022-12-03T01:29:15.931Z,75.80
2022-12-03T01:35:08.323Z,81.97
2022-12-03T01:41:00.973Z,61.38
2022-12-03T01:46:55.932Z,69.60
2022-12-03T01:52:48.234Z,70.25
2022-12-03T01:58:42.352Z,71.68
2022-12-03T02:04:34.672Z,64.25
2022-12-03T02:10:31.652Z,70.85
2022-12-03T02:16:24.232Z,70.45
2022-12-03T02:22:50.843Z,73.95
2022-12-03T02:28:43.034Z,74.70
2022-12-03T02:34:35.816Z,66.43
2022-12-03T02:46:21.912Z,74.13
2022-12-03T02:52:13.783Z,70.35
2022-12-03T02:58:06.931Z,51.10
2022-12-03T03:03:59.522Z,76.45
2022-12-03T03:09:52.622Z,68.82
2022-12-03T03:15:45.503Z,77.27
2022-12-03T03:21:38.852Z,73.60
2022-12-03T03:27:31.343Z,65.95
2022-12-03T03:33:23.941Z,85.00
2022-12-03T03:39:16.242Z,64.55
2022-12-03T03:45:09.142Z,61.97
2022-12-03T03:56:56.402Z,70.70
2022-12-03T04:02:49.334Z,57.45
2022-12-03T04:08:41.439Z,55.15
2022-12-03T04:14:34.205Z,65.55
2022-12-03T04:20:26.264Z,65.82
2022-12-03T04:26:36.802Z,63.25
2022-12-03T04:32:47.835Z,59.78
2022-12-03T04:38:39.932Z,66.53
2022-12-03T04:44:38.681Z,66.07
2022-12-03T04:50:31.194Z,58.40
2022-12-03T04:56:23.369Z,70.43
2022-12-03T05:02:15.459Z,65.15
2022-12-03T05:08:08.411Z,64.22
2022-12-03T05:14:00.901Z,86.28
2022-12-03T05:20:12.939Z,61.90
2022-12-03T05:26:05.250Z,71.55
2022-12-03T05:31:59.800Z,82.40
2022-12-03T05:37:52.500Z,72.03
2022-12-03T05:43:44.511Z,55.85
2022-12-03T05:49:36.331Z,75.50
2022-12-03T05:55:28.606Z,80.47
2022-12-03T06:01:20.391Z,76.97
2022-12-03T06:07:14.174Z,70.57
2022-12-03T06:13:06.498Z,77.35
2022-12-03T06:18:58.321Z,82.75
2022-12-03T06:24:50.730Z,82.47
2022-12-03T06:30:43.615Z,70.75
2022-12-03T06:36:35.421Z,80.80
2022-12-03T06:42:27.442Z,86.97
2022-12-03T06:48:19.687Z,82.47
2022-12-03T06:54:11.220Z,76.07
2022-12-03T07:00:06.635Z,74.80
2022-12-03T07:05:58.674Z,74.47
2022-12-03T07:11:50.400Z,84.43
2022-12-03T07:17:42.685Z,77.03
2022-12-03T07:23:34.750Z,79.05
2022-12-03T07:29:26.863Z,56.50
2022-12-03T07:35:18.449Z,63.03
2022-12-03T07:41:10.781Z,64.90
2022-12-03T07:47:03.027Z,78.07
2022-12-03T07:52:56.393Z,74.75
2022-12-03T07:58:48.685Z,44.13
2022-12-03T08:04:40.569Z,62.70
2022-12-03T08:10:33.020Z,65.82
2022-12-03T08:16:26.392Z,67.07
2022-12-03T08:22:18.860Z,52.23
2022-12-03T08:28:26.805Z,64.22
2022-12-03T08:34:25.230Z,64.03
2022-12-03T08:40:24.888Z,49.22
2022-12-03T08:46:19.698Z,49.33
2022-12-03T08:52:21.173Z,68.47
2022-12-03T08:58:23.333Z,53.90
2022-12-03T09:04:32.250Z,70.93
2022-12-03T09:10:24.590Z,81.43
2022-12-03T09:16:17.174Z,73.13
2022-12-03T09:22:10.061Z,86.63
2022-12-03T09:28:02.331Z,75.20
2022-12-03T09:33:55.050Z,78.53
2022-12-03T09:39:47.268Z,76.30
2022-12-03T09:45:40.081Z,75.63
2022-12-03T09:51:36.134Z,82.88
2022-12-03T09:57:28.433Z,66.30
2022-12-03T10:03:29.647Z,75.65
2022-12-03T10:09:28.356Z,72.05
2022-12-03T10:15:23.564Z,83.30
2022-12-03T10:21:24.441Z,72.65
2022-12-03T10:27:22.990Z,84.28
2022-12-03T10:33:18.804Z,84.07
2022-12-03T10:39:17.004Z,90.78
2022-12-03T10:45:15.230Z,95.47
2022-12-03T10:51:16.340Z,91.18
2022-12-03T10:57:09.792Z,84.43
2022-12-03T11:03:02.112Z,62.90
2022-12-03T11:08:58.689Z,65.97
2022-12-03T11:14:57.903Z,71.85
2022-12-03T11:21:06.250Z,82.25
2022-12-03T11:27:04.252Z,87.85
2022-12-03T11:33:06.689Z,81.07
2022-12-03T11:38:59.431Z,70.63
2022-12-03T11:45:06.983Z,83.07
2022-12-03T11:51:00.344Z,67.93
2022-12-03T11:56:53.530Z,84.55
2022-12-03T12:02:46.519Z,86.55
2022-12-03T12:08:41.982Z,79.68
2022-12-03T12:14:34.512Z,87.57
2022-12-03T12:20:31.779Z,76.25
2022-12-03T12:26:24.292Z,84.32
2022-12-03T12:32:19.053Z,79.03
2022-12-03T12:38:21.541Z,104.05
2022-12-03T12:44:14.802Z,99.03
2022-12-03T12:50:12.266Z,87.40
2022-12-03T12:56:26.593Z,91.13
2022-12-03T13:02:42.298Z,93.15
2022-12-03T13:08:49.547Z,90.53
2022-12-03T13:14:41.869Z,93.97
2022-12-03T13:20:37.071Z,86.80
2022-12-03T13:26:41.603Z,92.07
2022-12-03T13:32:39.311Z,78.13
2022-12-03T13:38:31.883Z,96.57
2022-12-03T13:44:24.953Z,102.97
2022-12-03T13:50:40.752Z,110.53
2022-12-03T13:56:36.810Z,103.38
2022-12-03T14:02:28.928Z,98.30
2022-12-03T14:08:23.439Z,93.40
2022-12-03T14:14:16.192Z,70.35
2022-12-03T14:20:09.468Z,91.75
2022-12-03T14:26:02.082Z,73.07
2022-12-03T14:31:54.889Z,79.72
2022-12-03T14:43:41.202Z,63.95
2022-12-03T14:49:33.960Z,80.43
2022-12-03T14:55:26.030Z,85.78
2022-12-03T15:01:18.628Z,56.00
2022-12-03T15:07:10.761Z,81.82
2022-12-03T15:13:03.005Z,91.70
2022-12-03T15:18:55.310Z,91.50
2022-12-03T15:24:47.740Z,80.20
2022-12-03T15:30:39.770Z,86.82
2022-12-03T15:36:32.762Z,116.40
2022-12-03T15:42:24.872Z,86.20
2022-12-03T15:48:17.030Z,79.57
2022-12-03T15:54:14.112Z,94.50
2022-12-03T16:00:08.530Z,106.72
2022-12-03T16:06:07.681Z,72.60
2022-12-03T16:12:00.602Z,91.55
2022-12-03T16:17:53.042Z,103.32
2022-12-03T16:23:45.253Z,106.18
2022-12-03T16:29:38.211Z,114.72
2022-12-03T16:35:30.419Z,112.70
2022-12-03T16:41:24.574Z,103.20
2022-12-03T16:47:20.244Z,102.70
2022-12-03T16:53:16.416Z,124.57
2022-12-03T16:59:10.311Z,101.72
2022-12-03T17:05:05.923Z,110.20
2022-12-03T17:11:00.189Z,99.47
2022-12-03T17:16:54.616Z,106.90
2022-12-03T17:22:50.520Z,87.60
2022-12-03T17:28:43.638Z,118.07
2022-12-03T17:34:38.941Z,116.95
2022-12-03T17:40:32.780Z,128.55
2022-12-03T17:46:25.271Z,121.90
2022-12-03T17:52:17.464Z,107.75
2022-12-03T17:58:11.999Z,123.18
2022-12-03T18:04:07.588Z,125.88
2022-12-03T18:10:00.253Z,120.35
2022-12-03T18:15:53.669Z,125.38
2022-12-03T18:21:46.640Z,102.90
2022-12-03T18:27:39.230Z,117.10
2022-12-03T18:33:31.311Z,126.22
2022-12-03T18:39:35.382Z,124.97
2022-12-03T18:45:27.750Z,127.80
2022-12-03T18:51:24.390Z,130.33
2022-12-03T18:57:16.954Z,119.85
2022-12-03T19:09:02.622Z,117.18
2022-12-03T19:14:55.775Z,131.27
2022-12-03T19:20:49.122Z,107.20
2022-12-03T19:26:41.379Z,93.50
2022-12-03T19:32:35.739Z,131.63
2022-12-03T19:38:30.125Z,124.75
2022-12-03T19:44:23.176Z,87.18
2022-12-03T19:50:23.006Z,136.15
2022-12-03T19:56:21.627Z,121.90
2022-12-03T20:02:15.104Z,121.78
2022-12-03T20:08:08.707Z,127.30
2022-12-03T20:14:08.562Z,124.47
2022-12-03T20:20:01.987Z,115.68
2022-12-03T20:25:57.279Z,133.82
2022-12-03T20:31:54.484Z,137.50
2022-12-03T20:37:48.263Z,129.45
2022-12-03T20:43:45.882Z,121.88
2022-12-03T20:49:40.505Z,93.35
2022-12-03T20:55:32.575Z,101.13
2022-12-03T21:01:28.064Z,117.70
2022-12-03T21:07:22.170Z,131.48
2022-12-03T21:13:17.602Z,130.97
2022-12-03T21:19:10.504Z,85.05
2022-12-03T21:25:04.977Z,128.40
2022-12-03T21:31:05.356Z,133.73
2022-12-03T21:36:58.070Z,124.80
2022-12-03T21:42:51.139Z,132.55
2022-12-03T21:48:46.705Z,133.17
2022-12-03T21:54:38.990Z,128.73
2022-12-03T22:00:32.170Z,144.20
2022-12-03T22:06:25.168Z,148.17
2022-12-03T22:12:19.310Z,140.80
2022-12-03T22:18:12.382Z,140.07
2022-12-03T22:24:05.726Z,135.27
2022-12-03T22:29:58.352Z,143.48
2022-12-03T22:35:58.670Z,143.00
2022-12-03T22:41:50.710Z,154.18
2022-12-03T22:47:42.961Z,137.23
2022-12-03T22:53:35.013Z,145.38
2022-12-03T22:59:27.132Z,137.23
2022-12-03T23:05:19.092Z,138.00
2022-12-03T23:11:11.344Z,140.70
2022-12-03T23:17:04.960Z,127.10
2022-12-03T23:22:57.290Z,130.20
2022-12-03T23:28:50.320Z,127.18
2022-12-03T23:34:42.997Z,128.35
2022-12-03T23:40:35.082Z,135.52
2022-12-03T23:46:27.844Z,142.13
2022-12-03T23:52:19.911Z,130.43
2022-12-03T23:58:12.551Z,138.30
